Time;durP1;ratioP1;P1;durP2;ratioP2;P2;SDS_P1;SDS_P2;PMS_P1;PMS_P2;Temp;Humidity;BMP_temperature;BMP_pressure;BME280_temperature;BME280_humidity;BME280_pressure;Samples;Min_cycle;Max_cycle;Signal;HPM_P1;HPM_P2
2022/04/05 00:01:08;;;;;;;10.70;7.60;;;;;;;4.03;100.00;95857.50;5062931;28;20108;-59
2022/04/05 00:03:37;;;;;;;7.97;6.70;;;;;;;4.01;100.00;95850.75;5066521;28;20071;-57
2022/04/05 00:06:05;;;;;;;9.18;7.20;;;;;;;4.02;100.00;95834.97;5066088;28;20080;-56
2022/04/05 00:08:33;;;;;;;11.52;7.68;;;;;;;3.92;100.00;95847.09;5065499;28;20127;-57
2022/04/05 00:11:01;;;;;;;8.82;7.53;;;;;;;3.96;100.00;95837.25;5066205;28;20103;-57
2022/04/05 00:13:30;;;;;;;10.52;7.80;;;;;;;3.93;100.00;95840.91;5067573;28;20068;-62
2022/04/05 00:15:58;;;;;;;11.95;7.43;;;;;;;3.93;100.00;95835.69;5068144;28;20076;-60
2022/04/05 00:18:28;;;;;;;8.25;7.05;;;;;;;3.87;100.00;95857.03;5068335;28;20056;-58
2022/04/05 00:20:56;;;;;;;9.27;7.05;;;;;;;4.02;100.00;95821.91;5067396;28;20721;-57
2022/04/05 00:23:24;;;;;;;10.43;7.43;;;;;;;3.85;100.00;95825.00;5064351;28;20560;-60
2022/04/05 00:25:53;;;;;;;9.43;7.63;;;;;;;3.92;100.00;95815.78;5064008;28;20060;-58
2022/04/05 00:28:21;;;;;;;9.30;6.90;;;;;;;3.95;100.00;95812.91;5065094;28;20060;-60
2022/04/05 00:30:49;;;;;;;10.93;7.60;;;;;;;4.00;100.00;95810.78;5067541;28;20477;-59
2022/04/05 00:33:17;;;;;;;8.07;6.32;;;;;;;4.02;100.00;95819.31;5066424;28;20080;-60
2022/04/05 00:35:47;;;;;;;6.95;6.18;;;;;;;4.10;100.00;95812.69;5066457;28;20522;-58
2022/04/05 00:38:16;;;;;;;8.43;6.75;;;;;;;4.04;100.00;95793.94;5064828;28;20525;-61
2022/04/05 00:40:44;;;;;;;8.40;6.43;;;;;;;4.06;100.00;95804.28;5063085;28;20068;-57
2022/04/05 00:43:12;;;;;;;9.85;7.10;;;;;;;4.13;100.00;95808.06;5067672;28;20502;-56
2022/04/05 00:45:41;;;;;;;9.63;6.75;;;;;;;4.07;100.00;95797.28;5067508;28;20481;-57
2022/04/05 00:48:09;;;;;;;8.05;6.97;;;;;;;4.14;100.00;95808.88;5067761;28;20084;-59
2022/04/05 00:50:39;;;;;;;8.27;6.47;;;;;;;4.03;100.00;95792.28;5064710;28;20088;-56
2022/04/05 00:53:09;;;;;;;8.13;6.63;;;;;;;4.16;100.00;95789.53;5064703;28;20466;-58
2022/04/05 00:55:38;;;;;;;10.20;7.32;;;;;;;4.08;100.00;95780.66;5067273;28;20558;-56
2022/04/05 00:58:07;;;;;;;5.97;5.43;;;;;;;4.09;100.00;95787.53;5065500;28;20526;-57
2022/04/05 01:00:35;;;;;;;9.00;6.78;;;;;;;4.16;100.00;95779.09;5065186;28;20081;-57
2022/04/05 01:03:04;;;;;;;10.00;6.57;;;;;;;4.17;100.00;95779.94;5065824;28;20772;-54
2022/04/05 01:05:33;;;;;;;8.45;6.65;;;;;;;4.20;100.00;95779.69;5067358;28;22147;-62
2022/04/05 01:08:03;;;;;;;8.50;6.90;;;;;;;4.11;100.00;95780.41;5066632;28;20059;-56
2022/04/05 01:10:33;;;;;;;8.38;6.60;;;;;;;4.16;100.00;95773.03;5066539;28;20064;-57
2022/04/05 01:13:01;;;;;;;6.82;6.13;;;;;;;4.26;100.00;95747.88;5066534;28;20094;-57
2022/04/05 01:15:30;;;;;;;7.45;6.65;;;;;;;4.13;100.00;95770.66;5067542;28;20068;-59
2022/04/05 01:17:58;;;;;;;10.52;6.60;;;;;;;4.20;100.00;95770.09;5068268;28;20569;-59
2022/04/05 01:20:26;;;;;;;6.78;6.05;;;;;;;4.20;100.00;95764.88;5069444;28;20067;-59
2022/04/05 01:22:55;;;;;;;7.45;6.03;;;;;;;4.15;100.00;95753.13;5064340;28;20071;-60
2022/04/05 01:25:25;;;;;;;7.82;6.75;;;;;;;4.14;100.00;95772.34;5065716;28;20056;-60
2022/04/05 01:27:53;;;;;;;7.13;6.05;;;;;;;4.16;100.00;95763.44;5064232;28;20070;-57
2022/04/05 01:30:21;;;;;;;8.00;6.38;;;;;;;4.21;100.00;95757.88;5064650;28;20076;-56
2022/04/05 01:32:50;;;;;;;9.15;6.38;;;;;;;4.09;100.00;95745.78;5068885;28;20079;-59
2022/04/05 01:35:18;;;;;;;8.48;6.10;;;;;;;4.20;100.00;95753.59;5064043;28;20059;-60
2022/04/05 01:37:46;;;;;;;7.28;5.47;;;;;;;4.29;100.00;95758.06;5066277;28;20060;-58
2022/04/05 01:40:15;;;;;;;7.75;6.47;;;;;;;4.17;100.00;95757.28;5062560;28;20060;-58
2022/04/05 01:42:44;;;;;;;6.07;5.47;;;;;;;4.16;100.00;95746.94;5066858;28;20098;-60
2022/04/05 01:45:12;;;;;;;7.95;6.00;;;;;;;4.19;100.00;95752.75;5067934;28;20076;-58
2022/04/05 01:47:41;;;;;;;6.75;5.70;;;;;;;4.22;100.00;95768.16;5067366;28;20071;-60
2022/04/05 01:50:09;;;;;;;6.85;6.15;;;;;;;4.17;100.00;95754.66;5066440;28;20068;-59
2022/04/05 01:52:38;;;;;;;8.18;6.75;;;;;;;4.07;100.00;95750.31;5062356;28;20072;-58
2022/04/05 01:55:07;;;;;;;7.97;6.60;;;;;;;4.02;100.00;95745.44;5065804;28;20060;-58
2022/04/05 01:57:35;;;;;;;6.28;5.10;;;;;;;4.15;100.00;95750.53;5063771;28;21308;-57
2022/04/05 02:00:14;;;;;;;6.55;5.18;;;;;;;4.14;100.00;95754.09;5067945;28;20076;-56
2022/04/05 02:02:42;;;;;;;8.65;6.82;;;;;;;4.19;100.00;95741.50;5065345;28;20071;-58
2022/04/05 02:05:11;;;;;;;6.75;5.85;;;;;;;4.09;100.00;95725.75;5063709;28;20063;-59
2022/04/05 02:07:40;;;;;;;7.53;5.72;;;;;;;4.20;100.00;95730.94;5064143;28;20048;-59
2022/04/05 02:10:09;;;;;;;8.52;6.68;;;;;;;4.44;100.00;95720.31;5064253;28;20747;-59
2022/04/05 02:12:39;;;;;;;9.10;5.40;;;;;;;4.29;100.00;95719.75;5063549;28;20065;-57
2022/04/05 02:15:10;;;;;;;8.85;6.10;;;;;;;4.28;100.00;95712.88;5070091;28;20092;-57
2022/04/05 02:17:39;;;;;;;6.72;5.55;;;;;;;4.39;100.00;95712.00;5064424;28;20139;-59
2022/04/05 02:20:09;;;;;;;6.93;5.40;;;;;;;4.51;100.00;95704.97;5064752;28;20060;-58
2022/04/05 02:22:37;;;;;;;12.10;7.22;;;;;;;4.55;100.00;95706.38;5060984;28;20071;-54
2022/04/05 02:25:06;;;;;;;8.25;6.57;;;;;;;4.39;100.00;95705.97;5069434;28;20087;-54
2022/04/05 02:27:35;;;;;;;8.95;7.07;;;;;;;4.51;100.00;95697.97;5066410;28;20122;-57
2022/04/05 02:30:03;;;;;;;9.98;7.55;;;;;;;4.64;100.00;95691.69;5071999;28;20542;-60
2022/04/05 02:32:33;;;;;;;7.53;6.38;;;;;;;4.61;100.00;95690.19;5066451;28;20177;-57
2022/04/05 02:35:01;;;;;;;6.93;6.10;;;;;;;4.48;100.00;95685.16;5070667;28;20048;-58
2022/04/05 02:37:30;;;;;;;7.40;5.82;;;;;;;4.68;100.00;95691.34;5066383;28;20435;-57
2022/04/05 02:39:58;;;;;;;5.85;5.25;;;;;;;4.64;100.00;95684.69;5071080;28;20064;-58
2022/04/05 02:42:26;;;;;;;7.30;6.30;;;;;;;4.76;100.00;95682.88;5064071;28;20087;-60
2022/04/05 02:44:54;;;;;;;7.57;5.78;;;;;;;4.71;100.00;95690.25;5068997;28;20091;-60
2022/04/05 02:47:23;;;;;;;6.75;5.45;;;;;;;4.65;100.00;95681.16;5064893;28;20541;-57
2022/04/05 02:49:53;;;;;;;8.10;6.68;;;;;;;4.69;100.00;95679.09;5067397;28;20069;-58
2022/04/05 02:52:21;;;;;;;9.50;7.35;;;;;;;4.94;100.00;95678.69;5073404;28;20075;-60
2022/04/05 02:54:49;;;;;;;6.20;5.50;;;;;;;4.86;100.00;95677.72;5071689;28;20068;-59
2022/04/05 02:57:18;;;;;;;8.00;6.35;;;;;;;4.89;100.00;95686.13;5070503;28;20084;-60
2022/04/05 02:59:47;;;;;;;6.75;6.03;;;;;;;4.83;100.00;95691.84;5068405;28;20083;-60
2022/04/05 03:02:15;;;;;;;8.98;6.28;;;;;;;4.99;100.00;95692.22;5069836;28;20706;-61
2022/04/05 03:04:43;;;;;;;9.20;5.32;;;;;;;4.98;100.00;95687.94;5064191;28;20514;-58
2022/04/05 03:07:14;;;;;;;7.38;5.75;;;;;;;5.00;100.00;95678.19;5069334;28;20079;-55
2022/04/05 03:09:42;;;;;;;7.05;5.40;;;;;;;4.95;100.00;95669.91;5076915;28;20608;-60
2022/04/05 03:12:11;;;;;;;7.85;5.32;;;;;;;5.08;100.00;95667.06;5072207;28;20461;-59
2022/04/05 03:14:39;;;;;;;7.05;5.07;;;;;;;5.10;100.00;95659.13;5071586;28;20112;-58
2022/04/05 03:17:08;;;;;;;9.20;4.93;;;;;;;4.98;100.00;95656.56;5070342;28;20110;-55
2022/04/05 03:19:36;;;;;;;7.20;5.03;;;;;;;5.07;100.00;95648.94;5069799;28;20079;-60
2022/04/05 03:22:06;;;;;;;6.43;5.65;;;;;;;5.00;100.00;95640.78;5070549;28;20070;-60
2022/04/05 03:24:35;;;;;;;6.32;5.05;;;;;;;5.14;100.00;95650.06;5070679;28;20064;-59
2022/04/05 03:27:04;;;;;;;6.07;5.40;;;;;;;5.11;100.00;95639.88;5064176;28;20096;-56
2022/04/05 03:29:33;;;;;;;9.13;5.03;;;;;;;5.13;100.00;95635.34;5070988;28;20106;-57
2022/04/05 03:32:01;;;;;;;6.88;5.63;;;;;;;5.12;100.00;95639.72;5069692;28;20451;-57
2022/04/05 03:34:30;;;;;;;6.13;5.07;;;;;;;5.26;100.00;95642.94;5074192;28;20064;-57
2022/04/05 03:36:58;;;;;;;5.82;5.22;;;;;;;5.07;100.00;95628.03;5069642;28;20089;-61
2022/04/05 03:39:26;;;;;;;6.63;5.35;;;;;;;4.97;100.00;95602.69;5073420;28;20060;-60
2022/04/05 03:41:56;;;;;;;7.13;5.50;;;;;;;5.11;100.00;95645.09;5076365;28;20080;-57
2022/04/05 03:44:25;;;;;;;6.95;5.15;;;;;;;5.08;100.00;95634.91;5070363;28;20079;-60
2022/04/05 03:46:56;;;;;;;5.28;4.63;;;;;;;5.11;100.00;95647.72;5066433;28;20083;-57
2022/04/05 03:49:24;;;;;;;8.80;5.07;;;;;;;5.07;100.00;95635.88;5067467;28;20074;-60
2022/04/05 03:51:52;;;;;;;5.75;4.68;;;;;;;5.09;100.00;95632.16;5066609;28;20068;-58
2022/04/05 03:54:21;;;;;;;9.88;5.68;;;;;;;5.16;100.00;95635.06;5067055;28;20072;-60
2022/04/05 03:56:49;;;;;;;7.10;6.00;;;;;;;4.99;100.00;95628.69;5069292;28;20556;-60
2022/04/05 03:59:19;;;;;;;6.95;5.93;;;;;;;4.93;100.00;95621.38;5062656;28;20071;-60
2022/04/05 04:01:47;;;;;;;6.05;5.07;;;;;;;4.93;100.00;95635.25;5070686;28;20080;-58
2022/04/05 04:04:15;;;;;;;6.50;5.90;;;;;;;4.94;100.00;95623.00;5066044;28;20078;-58
2022/04/05 04:06:44;;;;;;;6.93;5.07;;;;;;;4.94;100.00;95634.28;5065629;28;20079;-56
2022/04/05 04:09:12;;;;;;;6.47;5.53;;;;;;;5.05;100.00;95628.16;5066345;28;20084;-60
2022/04/05 04:11:40;;;;;;;6.70;5.65;;;;;;;5.05;100.00;95638.59;5066932;28;20084;-61
2022/04/05 04:14:09;;;;;;;6.05;5.45;;;;;;;5.10;100.00;95633.81;5067306;28;20067;-60
2022/04/05 04:16:39;;;;;;;5.30;4.80;;;;;;;5.09;100.00;95626.09;5068997;28;20064;-59
2022/04/05 04:19:07;;;;;;;7.82;5.97;;;;;;;5.18;100.00;95607.03;5062537;28;20087;-60
2022/04/05 04:21:35;;;;;;;6.43;5.18;;;;;;;5.13;100.00;95622.28;5062180;28;20076;-56
2022/04/05 04:24:04;;;;;;;7.63;5.50;;;;;;;5.17;100.00;95623.66;5061803;28;20098;-60
2022/04/05 04:26:32;;;;;;;6.85;5.30;;;;;;;5.14;100.00;95572.50;5070242;28;20063;-50
2022/04/05 04:29:03;;;;;;;9.77;6.97;;;;;;;5.00;100.00;95628.56;5068879;28;20075;-56
2022/04/05 04:31:32;;;;;;;6.05;5.18;;;;;;;5.06;100.00;95618.50;5069520;28;20423;-53
2022/04/05 04:34:02;;;;;;;7.18;5.68;;;;;;;5.15;100.00;95644.69;5067560;28;20072;-51
2022/04/05 04:36:30;;;;;;;7.25;6.53;;;;;;;4.98;100.00;95627.00;5063568;28;20068;-53
2022/04/05 04:38:58;;;;;;;9.18;6.88;;;;;;;4.92;100.00;95624.91;5064441;28;20084;-56
2022/04/05 04:41:26;;;;;;;7.63;6.15;;;;;;;4.97;100.00;95631.41;5069003;28;20096;-52
2022/04/05 04:43:54;;;;;;;8.10;5.63;;;;;;;5.00;100.00;95636.38;5069065;28;20068;-57
2022/04/05 04:46:23;;;;;;;6.10;4.85;;;;;;;4.97;100.00;95625.38;5069289;28;20628;-55
2022/04/05 04:48:51;;;;;;;7.38;5.95;;;;;;;4.93;100.00;95637.88;5069138;28;20131;-53
2022/04/05 04:51:21;;;;;;;8.00;6.20;;;;;;;4.92;100.00;95638.84;5069086;28;20122;-53
2022/04/05 04:53:49;;;;;;;7.05;5.70;;;;;;;5.04;100.00;95631.72;5066907;28;20080;-54
2022/04/05 04:56:17;;;;;;;9.00;5.93;;;;;;;4.93;100.00;95627.41;5069040;28;20098;-52
2022/04/05 04:58:45;;;;;;;5.85;5.05;;;;;;;4.92;100.00;95625.78;5065291;28;20070;-54
2022/04/05 05:01:14;;;;;;;5.35;4.80;;;;;;;5.00;100.00;95639.00;5069192;28;20068;-56
2022/04/05 05:03:42;;;;;;;9.85;5.95;;;;;;;4.93;100.00;95635.25;5068705;28;20091;-56
2022/04/05 05:06:10;;;;;;;8.63;6.47;;;;;;;4.98;100.00;95653.13;5068766;28;20518;-52
2022/04/05 05:08:40;;;;;;;7.50;5.75;;;;;;;4.93;100.00;95652.72;5069196;28;20076;-57
2022/04/05 05:11:08;;;;;;;7.25;6.07;;;;;;;4.99;100.00;95650.41;5067009;28;20072;-55
2022/04/05 05:13:36;;;;;;;7.85;6.60;;;;;;;4.91;100.00;95658.06;5068077;28;20056;-57
2022/04/05 05:16:05;;;;;;;8.13;6.93;;;;;;;4.86;100.00;95664.66;5068909;28;20076;-58
2022/04/05 05:18:33;;;;;;;10.50;6.72;;;;;;;5.08;100.00;95668.88;5063648;28;20064;-51
2022/04/05 05:21:01;;;;;;;11.60;6.40;;;;;;;4.99;100.00;95666.09;5069339;28;20091;-55
2022/04/05 05:23:30;;;;;;;11.20;6.60;;;;;;;4.93;100.00;95660.56;5048062;28;21506;-54
2022/04/05 05:25:59;;;;;;;8.20;5.93;;;;;;;4.98;100.00;95648.75;5067938;28;20075;-54
2022/04/05 05:28:27;;;;;;;9.52;6.38;;;;;;;5.04;100.00;95651.81;5067001;28;20064;-54
2022/04/05 05:30:56;;;;;;;8.60;6.55;;;;;;;5.08;100.00;95667.06;5061795;28;20072;-54
2022/04/05 05:33:24;;;;;;;8.82;6.50;;;;;;;5.02;100.00;95656.31;5063997;28;20068;-55
2022/04/05 05:35:53;;;;;;;8.90;6.78;;;;;;;4.94;100.00;95655.19;5062720;28;20088;-51
2022/04/05 05:38:21;;;;;;;7.10;5.97;;;;;;;5.11;100.00;95671.22;5068088;28;20076;-52
2022/04/05 05:40:49;;;;;;;8.90;7.15;;;;;;;5.03;100.00;95668.44;5068322;28;20075;-52
2022/04/05 05:43:19;;;;;;;12.13;7.03;;;;;;;5.11;100.00;95674.66;5068166;28;20071;-54
2022/04/05 05:45:48;;;;;;;10.23;7.05;;;;;;;5.07;100.00;95673.28;5068482;28;20511;-57
2022/04/05 05:48:16;;;;;;;9.07;7.13;;;;;;;5.12;100.00;95678.91;5062253;28;20084;-52
2022/04/05 05:50:44;;;;;;;6.60;5.93;;;;;;;5.12;100.00;95686.75;5068854;28;20095;-54
2022/04/05 05:53:12;;;;;;;10.43;6.32;;;;;;;5.10;100.00;95677.41;5062897;28;20071;-53
2022/04/05 05:55:41;;;;;;;7.93;6.45;;;;;;;5.09;100.00;95692.25;5068573;28;20103;-55
2022/04/05 05:58:09;;;;;;;8.43;7.03;;;;;;;5.03;100.00;95691.97;5064054;28;20064;-53
2022/04/05 06:00:39;;;;;;;8.75;6.55;;;;;;;5.12;100.00;95699.81;5068118;28;20059;-56
2022/04/05 06:03:07;;;;;;;8.03;6.40;;;;;;;5.07;100.00;95709.03;5068279;28;20080;-51
2022/04/05 06:05:36;;;;;;;8.98;6.40;;;;;;;4.93;100.00;95705.78;5068814;28;20083;-54
2022/04/05 06:08:05;;;;;;;9.45;6.30;;;;;;;4.96;100.00;95700.31;5067547;28;20073;-52
2022/04/05 06:10:33;;;;;;;8.85;5.93;;;;;;;5.00;100.00;95704.31;5067887;28;20079;-55
2022/04/05 06:13:01;;;;;;;10.43;6.68;;;;;;;5.05;100.00;95698.69;5066547;28;20518;-55
2022/04/05 06:15:30;;;;;;;7.63;6.65;;;;;;;5.06;100.00;95702.13;5068549;28;20086;-52
2022/04/05 06:18:00;;;;;;;13.85;7.75;;;;;;;5.14;100.00;95704.94;5068339;28;20088;-52
2022/04/05 06:20:29;;;;;;;10.98;7.07;;;;;;;5.09;100.00;95718.38;5069712;28;20450;-56
2022/04/05 06:22:58;;;;;;;8.48;6.38;;;;;;;4.95;100.00;95710.88;5067860;28;20083;-53
2022/04/05 06:25:28;;;;;;;7.78;5.80;;;;;;;4.83;100.00;95704.06;5068342;28;20088;-55
2022/04/05 06:27:56;;;;;;;8.95;6.95;;;;;;;4.79;100.00;95724.41;5065324;28;20463;-55
2022/04/05 06:30:25;;;;;;;8.38;6.88;;;;;;;4.80;100.00;95723.44;5065676;28;20067;-54
2022/04/05 06:33:06;;;;;;;6.45;5.53;;;;;;;4.88;100.00;95715.78;5068416;28;20415;-59
2022/04/05 06:35:35;;;;;;;10.43;7.47;;;;;;;4.92;100.00;95717.19;5062929;28;20301;-56
2022/04/05 06:38:03;;;;;;;7.70;6.32;;;;;;;4.91;100.00;95709.47;5066461;28;20562;-54
2022/04/05 06:40:32;;;;;;;8.52;6.78;;;;;;;4.96;100.00;95717.78;5070761;28;20076;-54
2022/04/05 06:43:00;;;;;;;6.47;5.47;;;;;;;5.08;100.00;95714.13;5069990;28;20074;-55
2022/04/05 06:45:29;;;;;;;11.52;7.63;;;;;;;4.94;100.00;95707.44;5071374;28;20070;-57
2022/04/05 06:47:57;;;;;;;9.52;5.45;;;;;;;5.10;100.00;95711.38;5072384;28;20087;-53
2022/04/05 06:50:27;;;;;;;8.52;6.43;;;;;;;5.24;100.00;95708.44;5071295;28;20060;-57
2022/04/05 06:52:58;;;;;;;8.70;6.70;;;;;;;5.18;100.00;95709.78;5069964;28;20068;-53
2022/04/05 06:55:26;;;;;;;8.63;6.35;;;;;;;5.19;100.00;95702.75;5071690;28;20079;-55
2022/04/05 06:57:55;;;;;;;9.02;6.78;;;;;;;5.37;100.00;95714.28;5065030;28;20064;-56
2022/04/05 07:00:24;;;;;;;8.80;6.15;;;;;;;5.36;100.00;95709.16;5064856;28;20201;-53
2022/04/05 07:02:53;;;;;;;9.98;6.53;;;;;;;5.27;100.00;95708.16;5065923;28;20088;-59
2022/04/05 07:05:22;;;;;;;9.18;6.25;;;;;;;5.30;100.00;95707.91;5068104;28;20069;-56
2022/04/05 07:07:52;;;;;;;9.23;6.82;;;;;;;5.27;100.00;95713.41;5071519;28;20048;-53
2022/04/05 07:10:21;;;;;;;7.28;5.68;;;;;;;5.38;100.00;95715.91;5071220;28;20074;-58
2022/04/05 07:12:49;;;;;;;9.15;6.25;;;;;;;5.46;100.00;95715.25;5071337;28;20453;-56
2022/04/05 07:15:18;;;;;;;9.60;6.78;;;;;;;5.30;100.00;95700.06;5071175;28;20084;-56
2022/04/05 07:17:46;;;;;;;9.57;6.50;;;;;;;5.32;100.00;95705.16;5071660;28;20084;-57
2022/04/05 07:20:34;;;;;;;9.40;7.50;;;;;;;5.32;100.00;95705.97;5069376;28;21527;-55
2022/04/05 07:23:04;;;;;;;10.38;7.55;;;;;;;5.50;100.00;95715.81;5068229;28;20060;-56
2022/04/05 07:25:34;;;;;;;7.93;6.85;;;;;;;5.52;100.00;95721.75;5069963;28;20071;-53
2022/04/05 07:28:03;;;;;;;9.90;7.70;;;;;;;5.55;100.00;95721.50;5071089;28;20519;-55
2022/04/05 07:30:31;;;;;;;8.18;6.47;;;;;;;5.46;100.00;95713.47;5068667;28;20059;-58
2022/04/05 07:32:59;;;;;;;8.15;6.45;;;;;;;5.44;100.00;95718.03;5071677;28;20552;-52
2022/04/05 07:35:28;;;;;;;10.30;7.47;;;;;;;5.54;100.00;95719.81;5070894;28;20103;-56
2022/04/05 07:37:56;;;;;;;10.20;6.93;;;;;;;5.52;100.00;95716.53;5070722;28;20719;-50
2022/04/05 07:40:47;;;;;;;9.57;7.65;;;;;;;5.59;100.00;95710.63;5070652;28;20060;-58
2022/04/05 07:43:15;;;;;;;8.00;6.13;;;;;;;5.67;100.00;95718.63;5065465;28;20110;-55
2022/04/05 07:45:44;;;;;;;8.98;6.85;;;;;;;5.65;100.00;95696.22;5066041;28;20060;-57
2022/04/05 07:48:13;;;;;;;6.18;5.32;;;;;;;5.63;100.00;95719.88;5070681;28;20095;-57
2022/04/05 07:50:41;;;;;;;9.18;6.43;;;;;;;5.75;100.00;95717.13;5066390;28;20545;-55
2022/04/05 07:53:11;;;;;;;;;;;;;;;5.75;100.00;95725.84;5088490;28;20067;-56
2022/04/05 07:55:41;;;;;;;8.48;6.35;;;;;;;5.74;100.00;95713.69;5066241;28;20345;-53
2022/04/05 07:58:09;;;;;;;10.33;6.27;;;;;;;5.85;100.00;95728.47;5070492;28;20064;-50
2022/04/05 08:00:38;;;;;;;8.82;5.70;;;;;;;5.89;100.00;95714.19;5069713;28;20068;-54
2022/04/05 08:03:06;;;;;;;7.10;5.55;;;;;;;5.98;100.00;95717.78;5070406;28;20127;-55
2022/04/05 08:05:35;;;;;;;7.88;5.53;;;;;;;6.03;100.00;95723.47;5070581;28;21327;-55
2022/04/05 08:08:03;;;;;;;9.60;7.32;;;;;;;5.99;100.00;95722.06;5070218;28;20467;-55
2022/04/05 08:10:32;;;;;;;8.07;6.18;;;;;;;6.32;100.00;95713.84;5070070;28;20083;-51
2022/04/05 08:13:01;;;;;;;9.38;5.60;;;;;;;6.09;100.00;95712.44;5071204;28;20075;-52
2022/04/05 08:15:30;;;;;;;8.20;5.22;;;;;;;6.41;100.00;95726.13;5069470;28;20060;-53
2022/04/05 08:17:58;;;;;;;8.43;5.70;;;;;;;6.19;100.00;95734.22;5070464;28;20441;-51
2022/04/05 08:20:27;;;;;;;6.57;5.50;;;;;;;6.52;100.00;95730.41;5068328;28;20064;-52
2022/04/05 08:22:55;;;;;;;10.48;5.93;;;;;;;6.42;100.00;95727.75;5069434;28;20064;-54
2022/04/05 08:25:23;;;;;;;4.93;4.28;;;;;;;6.30;100.00;95730.69;5069659;28;20067;-50
2022/04/05 08:27:51;;;;;;;6.40;4.95;;;;;;;6.33;100.00;95728.59;5069540;28;20079;-51
2022/04/05 08:30:21;;;;;;;4.97;4.25;;;;;;;6.44;100.00;95738.13;5069553;28;20450;-53
2022/04/05 08:32:49;;;;;;;7.00;5.55;;;;;;;6.56;100.00;95737.00;5069069;28;20083;-52
2022/04/05 08:35:19;;;;;;;4.88;4.22;;;;;;;6.48;100.00;95738.69;5069166;28;20083;-54
2022/04/05 08:37:48;;;;;;;6.10;4.97;;;;;;;6.71;100.00;95739.22;5069358;28;20064;-51
2022/04/05 08:40:18;;;;;;;7.03;4.95;;;;;;;6.45;100.00;95738.94;5068568;28;20064;-51
2022/04/05 08:42:50;;;;;;;6.60;5.20;;;;;;;6.47;100.00;95716.03;5069850;28;20517;-56
2022/04/05 08:45:21;;;;;;;4.70;4.05;;;;;;;6.59;100.00;95743.78;5069193;28;20088;-54
2022/04/05 08:47:51;;;;;;;7.05;5.20;;;;;;;6.54;100.00;95740.75;5069836;28;20080;-51
2022/04/05 08:50:21;;;;;;;5.80;5.20;;;;;;;6.47;100.00;95745.72;5068615;28;20076;-53
2022/04/05 08:52:50;;;;;;;6.97;5.20;;;;;;;6.59;100.00;95747.22;5062918;28;20079;-55
2022/04/05 08:55:19;;;;;;;6.50;4.72;;;;;;;6.59;100.00;95730.69;5065884;28;20099;-49
2022/04/05 08:57:47;;;;;;;5.72;4.35;;;;;;;6.83;100.00;95749.41;5064262;28;20067;-54
2022/04/05 09:00:19;;;;;;;6.05;4.45;;;;;;;6.79;100.00;95741.97;5064081;28;20067;-55
2022/04/05 09:03:00;;;;;;;6.25;4.78;;;;;;;6.80;100.00;95741.00;5067375;28;20088;-50
2022/04/05 09:05:30;;;;;;;7.32;4.63;;;;;;;6.75;100.00;95746.69;5062529;28;20482;-53
2022/04/05 09:08:20;;;;;;;7.88;5.10;;;;;;;7.00;100.00;95744.44;5068783;28;20450;-53
2022/04/05 09:10:51;;;;;;;5.45;4.20;;;;;;;6.82;100.00;95724.19;5068706;28;20725;-51
2022/04/05 09:13:22;;;;;;;5.97;4.60;;;;;;;7.08;100.00;95739.31;5069345;28;20548;-51
2022/04/05 09:15:56;;;;;;;6.95;5.28;;;;;;;6.94;100.00;95732.72;5065430;28;20071;-54
2022/04/05 09:18:32;;;;;;;6.28;5.13;;;;;;;7.05;100.00;95747.44;5068424;28;20066;-53
2022/04/05 09:21:02;;;;;;;8.05;5.72;;;;;;;7.30;100.00;95754.75;5068958;28;20125;-57
2022/04/05 09:23:33;;;;;;;6.90;5.03;;;;;;;7.24;100.00;95752.69;5068425;28;20091;-52
2022/04/05 09:26:01;;;;;;;;;;;;;;;7.31;100.00;95761.63;5066257;28;20063;-52
2022/04/05 09:28:32;;;;;;;7.80;5.78;;;;;;;7.26;100.00;95745.50;5068736;28;19963;-53
2022/04/05 09:31:02;;;;;;;6.13;4.55;;;;;;;7.19;100.00;95746.19;5068367;28;20509;-57
2022/04/05 09:33:34;;;;;;;7.20;5.18;;;;;;;7.33;100.00;95749.22;5068976;28;20067;-54
2022/04/05 09:36:04;;;;;;;5.57;4.38;;;;;;;7.25;100.00;95754.31;5068758;28;20445;-58
2022/04/05 09:38:33;;;;;;;7.57;5.47;;;;;;;7.40;100.00;95751.25;5068082;28;20072;-56
2022/04/05 09:41:20;;;;;;;5.82;4.47;;;;;;;7.72;100.00;95754.31;5068789;28;20060;-55
2022/04/05 09:43:53;;;;;;;7.45;5.88;;;;;;;7.31;100.00;95755.56;5063181;28;20052;-58
2022/04/05 09:46:23;;;;;;;6.03;4.97;;;;;;;7.69;100.00;95759.03;5068352;28;20075;-56
2022/04/05 09:49:20;;;;;;;9.98;5.88;;;;;;;7.71;100.00;95764.94;5068881;28;20098;-53
2022/04/05 09:51:52;;;;;;;6.35;5.35;;;;;;;7.42;100.00;95751.94;5043137;28;20517;-55
2022/04/05 09:54:28;;;;;;;8.38;5.40;;;;;;;7.40;100.00;95757.34;5068247;28;20079;-53
2022/04/05 09:57:03;;;;;;;7.72;5.10;;;;;;;7.33;100.00;95759.69;5063033;28;20075;-56
2022/04/05 09:59:40;;;;;;;7.65;5.85;;;;;;;7.47;100.00;95762.84;5068096;28;20452;-52
2022/04/05 10:02:10;;;;;;;7.07;4.72;;;;;;;7.64;100.00;95769.97;5068643;28;20068;-53
2022/04/05 10:05:01;;;;;;;6.25;4.93;;;;;;;7.63;100.00;95765.66;5065645;28;20079;-51
2022/04/05 10:07:31;;;;;;;6.18;4.80;;;;;;;7.66;100.00;95770.63;5068173;28;20079;-54
2022/04/05 10:10:01;;;;;;;6.75;4.75;;;;;;;7.97;100.00;95759.88;5067218;28;20071;-55
2022/04/05 10:12:30;;;;;;;6.85;4.95;;;;;;;7.83;100.00;95751.50;5064175;28;20075;-56
2022/04/05 10:14:59;;;;;;;6.45;4.60;;;;;;;7.86;100.00;95755.66;5066857;28;20474;-51
2022/04/05 10:17:29;;;;;;;4.90;4.25;;;;;;;8.05;100.00;95758.19;5051948;28;20076;-51
2022/04/05 10:19:58;;;;;;;8.30;4.10;;;;;;;8.05;100.00;95754.72;5067584;28;20067;-52
2022/04/05 10:22:27;;;;;;;6.00;4.55;;;;;;;8.37;100.00;95763.94;5072361;28;20072;-55
2022/04/05 10:24:56;;;;;;;4.50;4.05;;;;;;;8.14;100.00;95750.41;5068226;28;20071;-50
2022/04/05 10:27:26;;;;;;;6.10;4.72;;;;;;;8.31;100.00;95753.03;5071925;28;20060;-53
2022/04/05 10:30:00;;;;;;;5.27;4.47;;;;;;;8.43;100.00;95758.97;5071873;28;20069;-51
2022/04/05 10:32:42;;;;;;;5.53;4.45;;;;;;;8.41;100.00;95749.56;5068532;28;20091;-52
2022/04/05 10:35:11;;;;;;;4.43;3.63;;;;;;;8.42;100.00;95748.59;5071833;28;20068;-53
2022/04/05 10:37:41;;;;;;;6.25;5.47;;;;;;;8.54;100.00;95750.84;5071936;28;20575;-54
2022/04/05 10:40:15;;;;;;;9.02;4.68;;;;;;;8.43;100.00;95758.09;5071746;28;20064;-56
2022/04/05 10:42:46;;;;;;;7.28;5.35;;;;;;;8.56;100.00;95756.78;5070728;28;20525;-49
2022/04/05 10:45:17;;;;;;;5.68;4.70;;;;;;;8.70;100.00;95763.31;5071404;28;20414;-55
2022/04/05 10:48:03;;;;;;;6.38;4.80;;;;;;;8.71;100.00;95751.84;5072125;28;20100;-53
2022/04/05 10:51:11;;;;;;;5.95;4.95;;;;;;;8.86;100.00;95757.38;5070397;28;20224;-54
2022/04/05 10:54:17;;;;;;;5.80;5.07;;;;;;;8.75;100.00;95747.09;5071369;28;20423;-55
2022/04/05 10:56:34;;;;;;;5.13;4.18;;;;;;;8.69;100.00;95732.75;5066311;28;20494;-55
2022/04/05 10:59:18;;;;;;;5.20;4.47;;;;;;;8.98;100.00;95750.06;5071143;28;20544;-55
2022/04/05 11:01:46;;;;;;;4.82;3.83;;;;;;;8.75;100.00;95747.09;5069384;28;20470;-52
2022/04/05 11:04:33;;;;;;;5.63;3.90;;;;;;;8.80;100.00;95756.16;5071350;28;20064;-57
2022/04/05 11:07:12;;;;;;;5.40;4.57;;;;;;;8.75;100.00;95757.63;5067851;28;20071;-50
2022/04/05 11:09:54;;;;;;;4.90;4.10;;;;;;;8.77;100.00;95726.72;5067846;28;20554;-51
2022/04/05 11:12:25;;;;;;;5.93;4.03;;;;;;;8.68;100.00;95756.56;5068848;28;20554;-57
2022/04/05 11:14:55;;;;;;;6.65;5.00;;;;;;;8.89;100.00;95751.00;5065276;28;20084;-55
2022/04/05 11:17:25;;;;;;;6.20;4.60;;;;;;;9.12;100.00;95751.31;5071162;28;20071;-55
2022/04/05 11:19:57;;;;;;;5.40;4.50;;;;;;;8.94;100.00;95748.72;5070621;28;20068;-53
2022/04/05 11:22:32;;;;;;;7.47;5.13;;;;;;;9.12;100.00;95743.44;5071366;28;20064;-57
2022/04/05 11:25:04;;;;;;;7.32;4.28;;;;;;;9.41;100.00;95743.16;5070514;28;20083;-55
2022/04/05 11:27:35;;;;;;;6.32;4.47;;;;;;;9.49;100.00;95737.94;5070719;28;20060;-57
2022/04/05 11:30:39;;;;;;;7.28;4.25;;;;;;;9.20;100.00;95741.72;5070426;28;20087;-52
2022/04/05 11:33:14;;;;;;;4.90;4.18;;;;;;;9.26;100.00;95733.22;5070911;28;20064;-50
2022/04/05 11:35:47;;;;;;;6.97;5.20;;;;;;;9.54;100.00;95729.59;5062595;28;20129;-52
2022/04/05 11:38:29;;;;;;;7.63;4.78;;;;;;;9.54;100.00;95734.84;5070891;28;20040;-55
2022/04/05 11:41:03;;;;;;;6.55;4.70;;;;;;;9.64;100.00;95728.50;5070594;28;20063;-52
2022/04/05 11:43:32;;;;;;;4.75;3.67;;;;;;;9.83;100.00;95724.78;5070249;28;20088;-52
2022/04/05 11:46:03;;;;;;;5.23;4.10;;;;;;;10.10;100.00;95733.47;5070673;28;20768;-54
2022/04/05 11:48:32;;;;;;;4.93;3.90;;;;;;;9.87;100.00;95725.28;5069486;28;20068;-54